Time;durP1;ratioP1;P1;durP2;ratioP2;P2;SDS_P1;SDS_P2;PMS_P1;PMS_P2;Temp;Humidity;BMP_temperature;BMP_pressure;BME280_temperature;BME280_humidity;BME280_pressure;Samples;Min_cycle;Max_cycle;Signal;HPM_P1;HPM_P2
2022/11/27 00:01:14;;;;;;;12.30;8.43;;;0.70;99.90;;;;;;6241258;23;20405;-74
2022/11/27 00:03:42;;;;;;;13.77;8.60;;;1.30;99.90;;;;;;6240250;23;20410;-74
2022/11/27 00:06:12;;;;;;;12.73;8.00;;;0.80;99.90;;;;;;6242169;23;20474;-74
2022/11/27 00:08:39;;;;;;;13.87;8.10;;;1.30;99.90;;;;;;6241615;23;20448;-74
2022/11/27 00:11:07;;;;;;;13.07;8.60;;;0.80;99.90;;;;;;6244576;22;20469;-74
2022/11/27 00:13:35;;;;;;;11.97;8.47;;;0.70;99.90;;;;;;6252676;22;20405;-74
2022/11/27 00:16:02;;;;;;;10.50;7.27;;;2.00;99.90;;;;;;6241753;23;20408;-74
2022/11/27 00:18:30;;;;;;;14.30;8.80;;;1.20;99.90;;;;;;6240780;23;21004;-74
2022/11/27 00:21:01;;;;;;;12.63;8.37;;;0.90;99.90;;;;;;6241455;23;20493;-74
2022/11/27 00:23:33;;;;;;;14.53;8.63;;;0.80;99.90;;;;;;6241190;23;20888;-74
2022/11/27 00:26:06;;;;;;;14.23;8.70;;;0.80;99.90;;;;;;6241010;23;20453;-74
2022/11/27 00:28:40;;;;;;;15.93;9.27;;;0.60;99.90;;;;;;6239027;23;20409;-74
2022/11/27 00:31:08;;;;;;;20.47;8.93;;;2.10;99.90;;;;;;6240599;23;20417;-74
2022/11/27 00:33:37;;;;;;;14.23;7.87;;;1.00;99.90;;;;;;6241338;23;20424;-75
2022/11/27 00:36:05;;;;;;;12.40;8.53;;;1.20;99.90;;;;;;6241197;23;20455;-74
2022/11/27 00:38:40;;;;;;;9.87;7.97;;;0.60;99.90;;;;;;6240807;23;20472;-74
2022/11/27 00:41:08;;;;;;;14.40;8.83;;;0.60;99.90;;;;;;6241204;23;20406;-74
2022/11/27 00:43:35;;;;;;;12.97;9.80;;;1.80;99.90;;;;;;6241409;23;20418;-74
2022/11/27 00:46:02;;;;;;;11.10;8.20;;;0.60;99.90;;;;;;6242120;23;20965;-75
2022/11/27 00:48:29;;;;;;;11.23;8.23;;;1.10;99.90;;;;;;6242664;23;20673;-74
2022/11/27 00:51:01;;;;;;;12.90;8.50;;;1.80;99.90;;;;;;6241866;23;20403;-74
2022/11/27 00:53:30;;;;;;;11.43;7.90;;;0.70;99.90;;;;;;6240884;23;20426;-74
2022/11/27 00:55:57;;;;;;;14.33;7.87;;;0.60;99.90;;;;;;6240847;23;20471;-74
2022/11/27 00:58:25;;;;;;;12.70;8.30;;;0.70;99.90;;;;;;6240883;23;20691;-74
2022/11/27 01:01:06;;;;;;;7.93;6.33;;;0.80;99.90;;;;;;6241283;23;20414;-75
2022/11/27 01:03:35;;;;;;;8.97;6.80;;;0.80;99.90;;;;;;6217406;23;20389;-74
2022/11/27 01:06:05;;;;;;;15.03;7.40;;;0.50;99.90;;;;;;6239983;23;20495;-75
2022/11/27 01:08:32;;;;;;;10.73;7.37;;;0.80;99.90;;;;;;6240545;23;20452;-74
2022/11/27 01:11:00;;;;;;;12.80;6.87;;;0.90;99.90;;;;;;6240535;22;20545;-74
2022/11/27 01:13:32;;;;;;;8.23;6.00;;;0.50;99.90;;;;;;6240537;23;20414;-74
2022/11/27 01:15:59;;;;;;;6.90;5.50;;;0.50;99.90;;;;;;6240532;23;20390;-74
2022/11/27 01:18:26;;;;;;;7.00;5.63;;;1.50;99.90;;;;;;6240167;23;20448;-74
2022/11/27 01:20:54;;;;;;;4.97;4.37;;;0.60;99.90;;;;;;6240162;23;20394;-74
2022/11/27 01:23:23;;;;;;;10.63;5.27;;;0.60;99.90;;;;;;6240115;23;20789;-74
2022/11/27 01:25:59;;;;;;;6.83;4.30;;;0.60;99.90;;;;;;6240355;23;20441;-74
2022/11/27 01:28:26;;;;;;;9.10;4.30;;;0.80;99.90;;;;;;6240588;23;20395;-75
2022/11/27 01:30:53;;;;;;;10.50;7.50;;;0.70;99.90;;;;;;6240329;23;20900;-74
2022/11/27 01:33:20;;;;;;;5.70;5.10;;;0.80;99.90;;;;;;6240682;23;20934;-74
2022/11/27 01:35:54;;;;;;;6.27;5.47;;;0.70;99.90;;;;;;6238960;23;20676;-74
2022/11/27 01:38:23;;;;;;;9.90;5.73;;;0.60;99.90;;;;;;6239931;23;20393;-74
2022/11/27 01:40:57;;;;;;;7.83;5.30;;;0.50;99.90;;;;;;6241133;23;20417;-74
2022/11/27 01:43:38;;;;;;;5.87;5.27;;;1.10;99.90;;;;;;6240450;23;20421;-74
2022/11/27 01:46:12;;;;;;;8.13;4.83;;;0.70;99.90;;;;;;6240545;23;20445;-74
2022/11/27 01:48:41;;;;;;;6.47;5.17;;;0.50;99.90;;;;;;6240590;23;20899;-73
2022/11/27 01:51:10;;;;;;;5.20;4.60;;;0.30;99.90;;;;;;6239834;23;20416;-74
2022/11/27 01:56:25;;;;;;;6.43;4.63;;;0.60;99.90;;;;;;6240073;23;20409;-75
2022/11/27 01:58:54;;;;;;;5.83;4.20;;;0.50;99.90;;;;;;6240435;23;20406;-75
2022/11/27 02:01:23;;;;;;;6.13;4.97;;;0.40;99.90;;;;;;6240572;23;20430;-75
2022/11/27 02:03:50;;;;;;;5.57;4.80;;;0.40;99.90;;;;;;6239961;23;20940;-75
2022/11/27 02:06:17;;;;;;;6.23;4.77;;;0.50;99.90;;;;;;6240565;23;20442;-74
2022/11/27 02:08:45;;;;;;;10.60;5.57;;;1.20;99.90;;;;;;6240037;23;20432;-74
2022/11/27 02:11:19;;;;;;;8.10;5.30;;;0.40;99.90;;;;;;6240307;22;20461;-74
2022/11/27 02:13:50;;;;;;;7.63;4.80;;;0.50;99.90;;;;;;6240028;23;20406;-74
2022/11/27 02:16:24;;;;;;;8.10;5.93;;;0.40;99.90;;;;;;6240094;23;20986;-74
2022/11/27 02:18:57;;;;;;;8.83;5.03;;;0.30;99.90;;;;;;6239954;23;20451;-74
2022/11/27 02:21:31;;;;;;;8.10;5.83;;;1.20;99.90;;;;;;6240375;23;20402;-74
2022/11/27 02:24:42;;;;;;;6.90;6.13;;;0.60;99.90;;;;;;6239725;23;20948;-74
2022/11/27 02:27:39;;;;;;;6.97;5.10;;;0.50;99.90;;;;;;6231776;23;20433;-74
2022/11/27 02:30:08;;;;;;;7.70;5.97;;;0.30;99.90;;;;;;6240239;23;20464;-74
2022/11/27 02:32:39;;;;;;;12.97;6.33;;;0.10;99.90;;;;;;6240474;23;20415;-74
2022/11/27 02:35:12;;;;;;;8.20;5.83;;;0.10;99.90;;;;;;6240032;23;20950;-74
2022/11/27 02:37:46;;;;;;;10.27;5.60;;;0.30;99.90;;;;;;6240446;23;20413;-74
2022/11/27 02:40:16;;;;;;;9.47;5.60;;;0.70;99.90;;;;;;6240186;23;20909;-73
2022/11/27 02:42:47;;;;;;;12.07;6.83;;;0.20;99.90;;;;;;6240119;23;20398;-74
2022/11/27 02:45:19;;;;;;;9.37;6.10;;;0.10;99.90;;;;;;6239987;23;20429;-73
2022/11/27 02:47:49;;;;;;;9.57;6.10;;;1.10;99.90;;;;;;6239978;23;20472;-73
2022/11/27 02:50:19;;;;;;;8.97;5.57;;;0.00;99.90;;;;;;6240160;23;20433;-73
2022/11/27 02:52:49;;;;;;;10.60;6.53;;;0.20;99.90;;;;;;6239935;23;20561;-74
2022/11/27 02:55:20;;;;;;;9.50;5.80;;;0.00;99.90;;;;;;6240677;23;20492;-74
2022/11/27 02:57:50;;;;;;;9.90;5.37;;;-0.10;99.90;;;;;;6240704;23;20480;-74
2022/11/27 03:00:19;;;;;;;7.33;6.20;;;0.00;99.90;;;;;;6239705;23;20405;-74
2022/11/27 03:02:50;;;;;;;11.13;6.20;;;0.10;99.90;;;;;;6240147;23;20409;-74
2022/11/27 03:05:22;;;;;;;13.23;5.53;;;0.00;99.90;;;;;;6240490;23;20720;-74
2022/11/27 03:07:54;;;;;;;9.30;5.27;;;0.00;99.90;;;;;;6240181;23;20946;-74
2022/11/27 03:10:26;;;;;;;8.43;6.20;;;-0.10;99.90;;;;;;6239985;22;21173;-74
2022/11/27 03:12:53;;;;;;;9.63;5.73;;;0.30;99.90;;;;;;6240505;23;20390;-74
2022/11/27 03:15:24;;;;;;;10.90;6.80;;;0.20;99.90;;;;;;6242832;23;20413;-74
2022/11/27 03:17:56;;;;;;;12.33;7.40;;;0.20;99.90;;;;;;6242605;23;20480;-74
2022/11/27 03:20:27;;;;;;;11.30;7.90;;;-0.20;99.90;;;;;;6240959;23;20393;-74
2022/11/27 03:22:54;;;;;;;16.20;8.00;;;0.20;99.90;;;;;;6242932;23;20451;-74
2022/11/27 03:25:22;;;;;;;9.30;6.00;;;-0.10;99.90;;;;;;6241614;23;21099;-75
2022/11/27 03:27:53;;;;;;;9.57;5.00;;;0.00;99.90;;;;;;6241871;23;20548;-74
2022/11/27 03:30:22;;;;;;;9.53;5.30;;;-0.10;99.90;;;;;;6242267;23;20528;-74
2022/11/27 03:32:49;;;;;;;6.80;4.40;;;0.00;99.90;;;;;;6241627;23;20408;-73
2022/11/27 03:35:20;;;;;;;12.20;6.53;;;0.10;99.90;;;;;;6240461;23;20439;-75
2022/11/27 03:37:47;;;;;;;11.20;6.10;;;0.00;99.90;;;;;;6241270;23;20781;-74
2022/11/27 03:40:15;;;;;;;11.80;6.10;;;0.00;99.90;;;;;;6241627;23;20441;-74
2022/11/27 03:42:51;;;;;;;8.10;5.20;;;-0.10;99.90;;;;;;6242107;23;20591;-75
2022/11/27 03:45:32;;;;;;;6.63;3.80;;;-0.20;99.90;;;;;;6241811;23;20435;-74
2022/11/27 03:48:11;;;;;;;11.33;5.37;;;0.00;99.90;;;;;;6241752;23;20923;-74
2022/11/27 03:50:51;;;;;;;4.43;3.60;;;0.30;99.90;;;;;;6241339;23;20666;-74
2022/11/27 03:53:24;;;;;;;5.47;4.27;;;-0.20;99.90;;;;;;6242270;23;20401;-74
2022/11/27 03:56:01;;;;;;;6.50;4.40;;;0.30;99.90;;;;;;6242105;23;20397;-74
2022/11/27 03:58:33;;;;;;;5.80;4.67;;;-0.10;99.90;;;;;;6241784;23;20445;-74
2022/11/27 04:01:04;;;;;;;6.03;3.73;;;0.00;99.90;;;;;;6241889;23;20430;-74
2022/11/27 04:03:32;;;;;;;4.93;4.43;;;-0.20;99.90;;;;;;6241897;23;20838;-74
2022/11/27 04:05:59;;;;;;;4.87;3.90;;;-0.30;99.90;;;;;;6240404;23;20497;-76
2022/11/27 04:08:26;;;;;;;5.47;3.80;;;-0.20;99.90;;;;;;6241102;23;20941;-74
2022/11/27 04:10:53;;;;;;;5.20;4.73;;;-0.20;99.90;;;;;;6240964;22;20783;-74
2022/11/27 04:13:21;;;;;;;5.07;3.90;;;-0.60;99.90;;;;;;6241204;23;20636;-73
2022/11/27 04:15:49;;;;;;;5.97;3.80;;;-0.20;99.90;;;;;;6241142;23;20750;-74
2022/11/27 04:18:17;;;;;;;6.17;4.10;;;0.00;99.90;;;;;;6246896;22;20433;-76
2022/11/27 04:20:49;;;;;;;6.10;4.70;;;0.90;99.90;;;;;;6245863;22;20421;-77
2022/11/27 04:23:19;;;;;;;6.47;4.23;;;0.00;99.90;;;;;;6242184;23;20397;-76
2022/11/27 04:25:51;;;;;;;4.97;3.40;;;-0.20;99.90;;;;;;6240992;23;20444;-78
2022/11/27 04:28:19;;;;;;;9.13;3.20;;;-0.30;99.90;;;;;;6241651;23;20912;-78
2022/11/27 06:05:59;;;;;;;5.87;3.50;;;;;;;;;;6222268;22;20515;-80
2022/11/27 06:08:29;;;;;;;5.43;3.67;;;;;;;;;;6267622;23;20400;-79
2022/11/27 06:10:57;;;;;;;6.43;4.07;;;;;;;;;;6240692;23;20434;-79
2022/11/27 06:13:25;;;;;;;5.87;3.30;;;;;;;;;;6236195;23;20407;-80
2022/11/27 06:15:53;;;;;;;5.90;4.13;;;;;;;;;;6232120;23;20410;-79
2022/11/27 06:18:24;;;;;;;6.70;4.20;;;;;;;;;;6219485;23;20475;-78
2022/11/27 06:21:04;;;;;;;6.13;4.20;;;;;;;;;;6234503;22;20460;-79
2022/11/27 06:42:35;;;;;;;6.50;3.40;;;;;;;;;;6191398;22;20452;-77
2022/11/27 06:45:03;;;;;;;6.03;3.37;;;;;;;;;;6270809;22;21012;-77
2022/11/27 06:47:32;;;;;;;4.50;3.23;;;;;;;;;;6271841;22;20643;-76
2022/11/27 08:29:40;;;;;;;6.97;5.23;;;1.20;99.90;;;;;;6160055;22;20395;-76
2022/11/27 08:37:29;;;;;;;6.33;5.63;;;1.30;99.90;;;;;;6237551;22;20881;-76
2022/11/27 09:45:30;;;;;;;8.53;4.50;;;2.40;99.90;;;;;;6277311;22;20564;-83
2022/11/27 09:51:19;;;;;;;5.93;4.80;;;2.20;99.90;;;;;;6268251;22;20423;-73
2022/11/27 10:05:51;;;;;;;5.50;4.60;;;2.90;99.90;;;;;;6267745;22;20974;-86
2022/11/27 10:08:28;;;;;;;4.97;4.47;;;3.30;99.90;;;;;;6275321;22;20452;-88
2022/11/27 10:11:09;;;;;;;5.93;4.43;;;4.60;99.90;;;;;;6245117;22;20506;-86
2022/11/27 10:14:08;;;;;;;9.07;6.40;;;3.60;99.90;;;;;;6238969;23;20422;-86
2022/11/27 10:16:40;;;;;;;6.70;5.20;;;3.60;99.90;;;;;;6239232;23;20425;-88
2022/11/27 10:19:17;;;;;;;7.00;4.70;;;3.70;99.90;;;;;;6238564;23;20415;-88
2022/11/27 10:21:51;;;;;;;6.73;6.10;;;4.00;99.90;;;;;;6239739;23;20410;-76
2022/11/27 10:24:29;;;;;;;6.67;4.63;;;4.10;99.90;;;;;;6238731;23;20868;-90
2022/11/27 10:27:01;;;;;;;12.70;5.37;;;3.40;99.90;;;;;;6238237;23;20500;-74
2022/11/27 10:29:36;;;;;;;9.00;6.07;;;3.80;99.90;;;;;;6238462;23;20408;-76
2022/11/27 10:32:11;;;;;;;8.40;6.40;;;3.80;99.90;;;;;;6240256;23;20471;-88
2022/11/27 10:34:41;;;;;;;8.63;6.00;;;3.80;99.90;;;;;;6244986;23;20959;-91
2022/11/27 10:37:17;;;;;;;7.80;5.77;;;4.10;99.90;;;;;;6242779;23;20429;-90
2022/11/27 10:39:49;;;;;;;7.60;5.90;;;3.60;99.90;;;;;;6243599;23;20410;-92
2022/11/27 10:45:06;;;;;;;9.07;5.70;;;3.80;99.90;;;;;;6242131;23;20450;-91
2022/11/27 10:47:34;;;;;;;7.20;5.53;;;4.00;99.90;;;;;;6242718;23;20944;-91
2022/11/27 10:50:01;;;;;;;6.33;5.47;;;4.30;99.90;;;;;;6244767;23;20468;-89
2022/11/27 10:52:29;;;;;;;4.97;4.33;;;4.40;99.90;;;;;;6241958;23;20460;-92
2022/11/27 10:57:57;;;;;;;5.90;4.73;;;4.30;99.90;;;;;;6242605;23;20421;-90
2022/11/27 11:00:26;;;;;;;4.73;4.23;;;4.50;99.90;;;;;;6242479;23;20831;-92
2022/11/27 11:03:00;;;;;;;5.63;4.63;;;4.50;99.90;;;;;;6242221;23;20428;-90
2022/11/27 11:05:29;;;;;;;5.67;4.77;;;5.20;99.90;;;;;;6242611;23;20449;-91
2022/11/27 11:08:03;;;;;;;5.23;4.70;;;4.90;99.90;;;;;;6243341;23;20488;-92
2022/11/27 11:10:32;;;;;;;7.77;5.33;;;4.80;99.90;;;;;;6242174;22;21005;-77
2022/11/27 11:13:13;;;;;;;5.83;4.67;;;5.80;99.90;;;;;;6233855;23;20507;-78
2022/11/27 11:15:55;;;;;;;8.13;5.40;;;5.50;99.90;;;;;;6234088;23;20900;-75
2022/11/27 11:18:31;;;;;;;3.83;3.53;;;6.50;99.90;;;;;;6236465;23;20398;-78
2022/11/27 11:21:00;;;;;;;7.43;4.70;;;6.50;99.90;;;;;;6236059;23;20778;-75
2022/11/27 11:23:34;;;;;;;5.37;4.10;;;6.80;99.90;;;;;;6236456;23;20417;-74
2022/11/27 11:26:07;;;;;;;5.57;4.20;;;7.50;99.90;;;;;;6235961;23;20929;-76
2022/11/27 11:28:36;;;;;;;3.67;3.37;;;7.00;99.90;;;;;;6235924;23;20532;-75
2022/11/27 11:31:08;;;;;;;5.40;4.70;;;7.30;99.90;;;;;;6236143;23;20471;-75
2022/11/27 11:33:47;;;;;;;4.43;4.03;;;8.20;99.90;;;;;;6235026;23;20876;-75
2022/11/27 11:36:14;;;;;;;4.80;4.30;;;8.80;99.90;;;;;;6236821;23;20386;-75
2022/11/27 11:38:46;;;;;;;6.83;4.73;;;9.10;99.90;;;;;;6236606;23;20904;-74
2022/11/27 11:41:16;;;;;;;6.13;5.47;;;8.70;99.90;;;;;;6235674;23;20398;-74
2022/11/27 11:43:57;;;;;;;5.67;5.07;;;7.70;99.90;;;;;;6236967;23;20395;-74
2022/11/27 11:46:27;;;;;;;5.70;5.07;;;8.10;99.90;;;;;;6236349;23;20835;-74
2022/11/27 11:49:00;;;;;;;6.27;4.77;;;8.80;99.90;;;;;;6236414;23;20449;-73
2022/11/27 11:52:02;;;;;;;8.23;6.03;;;8.20;99.90;;;;;;6236244;23;20411;-74
2022/11/27 11:55:03;;;;;;;7.60;5.90;;;8.50;99.90;;;;;;6236131;23;20397;-74
2022/11/27 11:58:02;;;;;;;7.73;4.80;;;8.00;99.90;;;;;;6236142;23;20808;-73
2022/11/27 12:00:42;;;;;;;6.50;5.10;;;7.20;99.90;;;;;;6235761;23;20442;-73
2022/11/27 12:03:38;;;;;;;6.57;5.27;;;7.10;99.90;;;;;;6236471;23;20405;-74
2022/11/27 12:06:25;;;;;;;8.10;5.83;;;7.00;99.90;;;;;;6204032;23;20501;-74
2022/11/27 12:09:03;;;;;;;7.43;6.27;;;7.70;99.90;;;;;;6236498;23;20477;-75
2022/11/27 12:11:38;;;;;;;6.40;5.23;;;8.10;99.90;;;;;;6238491;23;20414;-73
2022/11/27 12:14:24;;;;;;;7.20;5.77;;;8.40;99.90;;;;;;6239434;23;20399;-76
2022/11/27 12:17:07;;;;;;;6.10;5.50;;;8.40;99.90;;;;;;6237236;23;20718;-73
2022/11/27 12:19:54;;;;;;;6.70;6.10;;;7.50;99.90;;;;;;6237627;23;20761;-88
2022/11/27 12:22:36;;;;;;;5.93;5.33;;;8.40;99.90;;;;;;6245033;23;20414;-88
2022/11/27 12:25:18;;;;;;;6.13;5.53;;;7.00;99.90;;;;;;6242132;23;20468;-89
2022/11/27 12:27:56;;;;;;;8.03;5.80;;;8.50;99.90;;;;;;6240100;23;20477;-90
2022/11/27 12:30:27;;;;;;;6.20;5.60;;;9.60;99.90;;;;;;6241964;23;20690;-84
2022/11/27 12:33:18;;;;;;;10.70;9.27;;;8.70;99.90;;;;;;6238253;23;20764;-89
2022/11/27 12:35:51;;;;;;;6.23;5.63;;;9.30;99.90;;;;;;6239506;23;20420;-88
2022/11/27 12:38:44;;;;;;;6.73;5.97;;;9.90;99.90;;;;;;6240354;23;20429;-90
2022/11/27 12:41:56;;;;;;;8.17;6.10;;;9.60;99.90;;;;;;6240574;23;20410;-89
2022/11/27 12:44:35;;;;;;;180.60;127.00;;;9.30;99.90;;;;;;6240385;23;20413;-90
2022/11/27 12:47:08;;;;;;;10.30;7.73;;;9.70;99.90;;;;;;6243366;23;20866;-89
2022/11/27 12:49:40;;;;;;;6.60;5.37;;;10.20;99.90;;;;;;6243395;23;20444;-88
2022/11/27 12:52:14;;;;;;;5.87;5.30;;;10.30;99.90;;;;;;6245678;23;20449;-88
2022/11/27 12:54:48;;;;;;;6.10;5.50;;;10.60;99.90;;;;;;6244251;23;20406;-89
2022/11/27 12:57:18;;;;;;;5.90;5.30;;;10.50;99.90;;;;;;6239587;23;20790;-90
2022/11/27 12:59:53;;;;;;;6.83;5.87;;;11.00;99.90;;;;;;6241047;23;20691;-88
2022/11/27 13:02:29;;;;;;;6.23;5.60;;;10.30;99.90;;;;;;6239075;23;20652;-87
2022/11/27 13:05:00;;;;;;;6.67;6.07;;;7.90;99.90;;;;;;6243547;23;20410;-88
2022/11/27 13:07:37;;;;;;;6.40;5.80;;;8.40;99.90;;;;;;6245836;23;20399;-87
2022/11/27 13:10:26;;;;;;;7.13;6.20;;;8.70;99.90;;;;;;6253926;22;20466;-87
2022/11/27 13:13:03;;;;;;;8.80;7.90;;;7.70;99.90;;;;;;6253023;23;20492;-87
2022/11/27 13:15:39;;;;;;;5.80;5.20;;;7.30;99.90;;;;;;6242627;23;20399;-87
2022/11/27 13:18:18;;;;;;;6.00;5.50;;;6.10;99.90;;;;;;6238758;23;20401;-87
2022/11/27 13:20:48;;;;;;;7.10;6.40;;;5.90;99.90;;;;;;6239382;23;21224;-90
2022/11/27 13:23:16;;;;;;;8.23;6.60;;;5.70;99.90;;;;;;6238228;23;20737;-91
2022/11/27 13:25:52;;;;;;;8.57;7.27;;;5.90;99.90;;;;;;6235661;23;20494;-93
2022/11/27 13:28:25;;;;;;;10.07;7.30;;;5.30;99.90;;;;;;6239001;23;21122;-92
2022/11/27 13:30:56;;;;;;;9.20;6.50;;;4.90;99.90;;;;;;6239300;23;20453;-93
2022/11/27 13:33:45;;;;;;;8.00;6.30;;;4.90;99.90;;;;;;6238858;23;20436;-85
2022/11/27 13:36:20;;;;;;;8.13;6.97;;;4.70;99.90;;;;;;6234923;23;20402;-79
2022/11/27 13:38:55;;;;;;;10.90;7.37;;;4.80;99.90;;;;;;6235437;23;20807;-79
2022/11/27 13:41:23;;;;;;;8.97;6.50;;;;;;;;;;6234910;23;20651;-78
2022/11/27 13:43:51;;;;;;;10.33;6.20;;;;;;;;;;6234979;23;20410;-80
2022/11/27 13:46:26;;;;;;;11.23;8.10;;;3.60;99.90;;;;;;6234540;23;20418;-76
2022/11/27 13:48:56;;;;;;;7.73;6.77;;;3.50;99.90;;;;;;6234839;23;20446;-78
2022/11/27 13:51:26;;;;;;;8.87;6.43;;;3.90;99.90;;;;;;6234787;23;21031;-76
2022/11/27 13:53:54;;;;;;;12.40;8.30;;;4.10;99.90;;;;;;6235189;23;20418;-77
2022/11/27 13:56:30;;;;;;;10.50;8.07;;;4.20;99.90;;;;;;6233667;23;20434;-76
2022/11/27 13:59:12;;;;;;;12.47;8.03;;;4.20;99.90;;;;;;6236333;23;20412;-76
2022/11/27 14:01:53;;;;;;;10.03;6.30;;;3.90;99.90;;;;;;6235643;23;20437;-77
2022/11/27 14:04:20;;;;;;;11.30;7.67;;;4.20;99.90;;;;;;6236200;23;20440;-77
2022/11/27 14:06:55;;;;;;;11.70;7.70;;;3.90;99.90;;;;;;6234172;23;20858;-80
2022/11/27 14:09:36;;;;;;;9.03;8.10;;;3.60;99.90;;;;;;6234364;22;20596;-77
2022/11/27 14:12:18;;;;;;;11.10;7.73;;;3.60;99.90;;;;;;6235735;23;20397;-79
2022/11/27 14:14:57;;;;;;;9.77;7.93;;;4.00;99.90;;;;;;6236937;23;20422;-78
2022/11/27 14:17:36;;;;;;;10.30;7.83;;;4.00;99.90;;;;;;6233244;23;20777;-77
2022/11/27 14:20:18;;;;;;;11.53;8.87;;;3.80;99.90;;;;;;6235023;23;20480;-77
2022/11/27 14:22:48;;;;;;;10.20;8.60;;;3.60;99.90;;;;;;6235309;23;20418;-77
2022/11/27 14:25:24;;;;;;;10.50;7.30;;;3.70;99.90;;;;;;6234894;23;20453;-77
2022/11/27 14:28:00;;;;;;;12.30;8.57;;;3.90;99.90;;;;;;6235697;23;20962;-77
2022/11/27 14:30:34;;;;;;;14.63;8.03;;;3.90;99.90;;;;;;6235134;23;20394;-77
2022/11/27 14:33:16;;;;;;;10.00;7.37;;;3.60;99.90;;;;;;6234275;23;20390;-76
2022/11/27 14:35:48;;;;;;;13.23;8.40;;;3.70;99.90;;;;;;6234577;23;20442;-76
2022/11/27 14:38:16;;;;;;;10.40;7.97;;;3.40;99.90;;;;;;6235145;23;20394;-77
2022/11/27 14:40:43;;;;;;;12.23;8.90;;;3.50;99.90;;;;;;6234901;23;20413;-77
2022/11/27 14:43:14;;;;;;;9.07;7.37;;;3.40;99.90;;;;;;6234656;23;20798;-77
2022/11/27 14:45:45;;;;;;;12.60;9.70;;;3.40;99.90;;;;;;6234056;23;20425;-77
2022/11/27 14:48:25;;;;;;;10.27;6.90;;;3.50;99.90;;;;;;6235007;23;20430;-76
2022/11/27 14:50:56;;;;;;;10.97;8.37;;;3.40;99.90;;;;;;6234707;23;20398;-77
2022/11/27 14:56:07;;;;;;;11.73;9.17;;;3.50;99.90;;;;;;6234562;23;20931;-77
2022/11/27 14:58:53;;;;;;;15.00;8.50;;;3.50;99.90;;;;;;6235167;23;20528;-75
2022/11/27 15:01:25;;;;;;;14.67;8.87;;;3.30;99.90;;;;;;6234617;23;20860;-76
2022/11/27 15:03:58;;;;;;;18.83;8.30;;;3.10;99.90;;;;;;6237355;23;20394;-76
2022/11/27 15:06:27;;;;;;;16.33;9.33;;;3.10;99.90;;;;;;6234000;23;20434;-76
2022/11/27 15:08:54;;;;;;;14.03;8.70;;;3.10;99.90;;;;;;6235984;23;20733;-77
2022/11/27 15:11:23;;;;;;;15.40;8.80;;;3.10;99.90;;;;;;6235621;23;20762;-76
2022/11/27 15:22:05;;;;;;;15.40;9.67;;;2.90;99.90;;;;;;6268047;22;20786;-78
2022/11/27 15:24:38;;;;;;;17.70;11.40;;;2.90;99.90;;;;;;6268134;22;20424;-78
2022/11/27 15:27:24;;;;;;;15.20;9.83;;;3.00;99.90;;;;;;6266288;22;20408;-77
2022/11/27 15:30:10;;;;;;;15.17;11.50;;;2.80;99.90;;;;;;6267302;22;20517;-77
2022/11/27 15:32:50;;;;;;;12.90;8.60;;;2.90;99.90;;;;;;6268932;22;20405;-78
2022/11/27 15:35:23;;;;;;;11.83;8.57;;;3.10;99.90;;;;;;6269487;22;20405;-79
2022/11/27 15:37:57;;;;;;;13.80;8.60;;;3.30;99.90;;;;;;6272950;22;20419;-78
2022/11/27 15:40:29;;;;;;;15.30;8.23;;;3.00;99.90;;;;;;6270692;22;20437;-77
2022/11/27 15:42:56;;;;;;;10.83;9.00;;;3.00;99.90;;;;;;6272262;22;20945;-90
2022/11/27 15:45:30;;;;;;;15.27;9.47;;;3.00;99.90;;;;;;6270126;22;20460;-78
2022/11/27 15:48:01;;;;;;;11.23;7.90;;;3.20;99.90;;;;;;6270312;22;20402;-76
2022/11/27 15:50:29;;;;;;;16.73;9.87;;;2.90;99.90;;;;;;6268629;22;20424;-77
2022/11/27 15:52:59;;;;;;;16.70;8.97;;;2.80;99.90;;;;;;6268160;22;20446;-77
2022/11/27 15:55:26;;;;;;;12.00;8.20;;;2.80;99.90;;;;;;6267433;22;20823;-77
2022/11/27 16:00:34;;;;;;;13.17;8.87;;;2.60;99.90;;;;;;6268658;22;20413;-75
2022/11/27 16:03:01;;;;;;;7.90;7.00;;;2.80;99.90;;;;;;6271057;22;20414;-78
2022/11/27 16:05:30;;;;;;;10.80;7.77;;;2.90;99.90;;;;;;6270139;22;20410;-77
2022/11/27 16:07:58;;;;;;;12.77;7.97;;;2.90;99.90;;;;;;6269724;22;20477;-77
2022/11/27 16:10:25;;;;;;;11.80;7.80;;;2.50;99.90;;;;;;6251136;22;20458;-77
2022/11/27 16:32:25;;;;;;;16.70;9.93;;;2.00;99.90;;;;;;6265723;22;20535;-75
2022/11/27 16:34:52;;;;;;;16.67;10.43;;;2.00;99.90;;;;;;6268951;22;20477;-76
2022/11/27 16:37:19;;;;;;;12.27;9.17;;;2.00;99.90;;;;;;6267010;22;20812;-76
2022/11/27 16:39:49;;;;;;;17.97;10.70;;;2.70;99.90;;;;;;6269293;22;20456;-76
2022/11/27 16:42:16;;;;;;;12.57;10.23;;;2.10;99.90;;;;;;6267350;22;20417;-75
2022/11/27 16:44:43;;;;;;;14.37;8.73;;;2.10;99.90;;;;;;6266718;22;20492;-76
2022/11/27 16:47:11;;;;;;;14.87;9.07;;;2.50;99.90;;;;;;6266600;22;20902;-76
2022/11/27 16:49:40;;;;;;;12.53;7.87;;;1.90;99.90;;;;;;6271519;22;20476;-75
2022/11/27 16:52:08;;;;;;;11.87;7.20;;;1.40;99.90;;;;;;6269472;22;20405;-76
2022/11/27 16:54:35;;;;;;;14.03;8.87;;;1.60;99.90;;;;;;6266618;22;20419;-75
2022/11/27 16:57:03;;;;;;;15.53;9.07;;;1.50;99.90;;;;;;6265137;22;20447;-76
2022/11/27 16:59:30;;;;;;;19.90;10.63;;;1.50;99.90;;;;;;6266609;22;20479;-77
2022/11/27 17:01:57;;;;;;;17.47;9.93;;;1.50;99.90;;;;;;6268846;22;20920;-77
2022/11/27 17:04:24;;;;;;;17.50;8.70;;;1.00;99.90;;;;;;6270345;22;20405;-75
2022/11/27 17:06:52;;;;;;;17.00;9.60;;;1.40;99.90;;;;;;6277123;22;20436;-79
2022/11/27 17:09:19;;;;;;;18.90;12.27;;;1.70;99.90;;;;;;6269947;22;20475;-72
2022/11/27 17:11:48;;;;;;;15.60;9.20;;;1.40;99.90;;;;;;6297046;22;20502;-74
2022/11/27 17:14:15;;;;;;;15.23;9.00;;;1.00;99.90;;;;;;6296449;22;20487;-76
2022/11/27 17:16:42;;;;;;;15.13;8.60;;;1.30;99.90;;;;;;6296835;22;20419;-73
2022/11/27 17:19:14;;;;;;;17.27;10.43;;;1.20;99.90;;;;;;6296520;22;20732;-74
2022/11/27 17:21:46;;;;;;;16.03;10.37;;;1.20;99.90;;;;;;6298528;22;20396;-72
2022/11/27 17:24:16;;;;;;;13.57;10.57;;;1.60;99.90;;;;;;6298557;22;20411;-72
2022/11/27 17:26:44;;;;;;;16.07;11.10;;;1.30;99.90;;;;;;6297851;22;20485;-72
2022/11/27 17:29:12;;;;;;;17.27;11.10;;;1.30;99.90;;;;;;6296254;22;20447;-75
2022/11/27 17:31:39;;;;;;;16.63;9.17;;;1.40;99.90;;;;;;6303996;22;20408;-73
2022/11/27 17:34:08;;;;;;;14.77;9.30;;;1.40;99.90;;;;;;6302925;22;20447;-75
2022/11/27 17:36:35;;;;;;;15.20;10.20;;;0.80;99.90;;;;;;6302511;22;20515;-75
2022/11/27 17:39:03;;;;;;;14.60;9.07;;;1.20;99.90;;;;;;6301263;22;20420;-72
2022/11/27 17:41:33;;;;;;;16.57;10.17;;;1.20;99.90;;;;;;6308428;22;20484;-73
2022/11/27 17:44:00;;;;;;;15.70;10.40;;;1.30;99.90;;;;;;6300614;22;20413;-73
2022/11/27 17:46:29;;;;;;;21.30;11.13;;;1.20;99.90;;;;;;6299639;22;20465;-73
2022/11/27 17:48:58;;;;;;;20.03;11.40;;;1.40;99.90;;;;;;6297310;22;20968;-73
2022/11/27 17:51:26;;;;;;;19.07;12.17;;;1.30;99.90;;;;;;6298672;22;20408;-73
2022/11/27 17:53:59;;;;;;;19.63;10.60;;;1.30;99.90;;;;;;6296968;22;20799;-73
2022/11/27 17:56:28;;;;;;;12.53;8.67;;;1.30;99.90;;;;;;6297583;22;20454;-73
2022/11/27 17:58:56;;;;;;;13.67;10.10;;;1.30;99.90;;;;;;6295883;22;20462;-73
2022/11/27 18:01:25;;;;;;;13.93;8.60;;;1.30;99.90;;;;;;6296939;22;20466;-73
2022/11/27 18:03:56;;;;;;;25.20;13.33;;;1.40;99.90;;;;;;6294847;22;20412;-74
2022/11/27 18:06:23;;;;;;;19.60;11.87;;;1.40;99.90;;;;;;6297353;22;20485;-73
2022/11/27 18:08:51;;;;;;;20.93;12.70;;;1.30;99.90;;;;;;6299206;22;20412;-72
2022/11/27 18:11:20;;;;;;;15.93;10.03;;;1.60;99.90;;;;;;6297651;22;20497;-72
2022/11/27 18:13:48;;;;;;;16.07;9.33;;;1.50;99.90;;;;;;6297548;22;20430;-75
2022/11/27 18:16:18;;;;;;;13.10;9.73;;;1.40;99.90;;;;;;6297195;22;20977;-74
2022/11/27 18:18:53;;;;;;;17.87;9.97;;;1.40;99.90;;;;;;6297957;22;20412;-73
2022/11/27 18:21:21;;;;;;;15.23;9.37;;;1.30;99.90;;;;;;6297797;22;20441;-73
2022/11/27 18:23:49;;;;;;;12.87;8.70;;;1.30;99.90;;;;;;6297666;22;20896;-71
2022/11/27 18:26:19;;;;;;;14.13;10.07;;;1.30;99.90;;;;;;6297049;22;20439;-71
2022/11/27 18:28:46;;;;;;;14.97;10.17;;;1.30;99.90;;;;;;6297474;22;20824;-71
2022/11/27 18:31:20;;;;;;;13.07;9.27;;;1.30;99.90;;;;;;6297118;22;20451;-73
2022/11/27 18:33:47;;;;;;;13.93;9.57;;;1.30;99.90;;;;;;6297546;22;20697;-76
2022/11/27 18:36:16;;;;;;;17.77;10.40;;;1.30;99.90;;;;;;6297688;22;20863;-77
2022/11/27 18:38:44;;;;;;;13.70;8.63;;;1.30;99.90;;;;;;6298582;22;20420;-76
2022/11/27 18:41:14;;;;;;;13.50;9.03;;;1.10;99.90;;;;;;6297926;22;20411;-77
2022/11/27 18:43:41;;;;;;;17.13;9.17;;;1.20;99.90;;;;;;6298495;22;20412;-76
2022/11/27 18:46:09;;;;;;;14.53;10.80;;;1.20;99.90;;;;;;6299209;22;20430;-76
2022/11/27 18:48:38;;;;;;;14.27;9.87;;;1.20;99.90;;;;;;6296467;22;20408;-76
2022/11/27 18:51:07;;;;;;;12.03;8.57;;;1.30;99.90;;;;;;6295187;22;20506;-75
2022/11/27 18:53:34;;;;;;;12.87;9.33;;;1.30;99.90;;;;;;6300302;22;20419;-75
2022/11/27 18:56:03;;;;;;;13.43;9.17;;;1.60;99.90;;;;;;6299747;22;20412;-75
2022/11/27 18:58:41;;;;;;;16.70;9.77;;;1.10;99.90;;;;;;6300193;22;20914;-75
2022/11/27 19:01:10;;;;;;;19.70;9.23;;;1.40;99.90;;;;;;6298118;22;20486;-76